Brunswick, ME (04011)

5:11 AM EDT on September 02, 2015 (GMT -0400)
Brunswick Police Department | | Change Station
CLOSE
Current Station
Personal Weather Station
Location: Brunswick, ME
Elevation: 89 ft
Nearby Weather Stations

Elev 89 ft 43.91 °N, 69.98 °W | Updated 11 minutes ago

Partly Cloudy
Partly Cloudy
60.1 °F
Feels Like 60.1 °F
N
0.0
Wind Variable Wind from NW
Gusts 0.0 mph

Today
High -- | Low -- °F
--% Chance of Precip.
Yesterday
High -- | Low -- °F
Precip. -- in
6:04 AM 7:14 PM
Waning Gibbous, 82% visible
Pressure 29.99 in
Visibility 10.0 miles
Clouds Overcast 400 ft
Dew Point 59 °F
Humidity 95%
Rainfall 0.00 in
Snow Depth Not available.
UV 0 out of 12
Pollen 8.30 out of 12
Air Quality Not available.
Flu Activity Not available.
METAR KIWI 020853Z AUTO 00000KT 10SM OVC004 13/13 A2999 RMK AO2 SLP154 T01330128 56008
Pressure 29.99 in
Visibility 10.0 miles
Clouds Overcast 400 ft
Dew Point 59 °F
Humidity 95%
Rainfall 0.00 in
Snow Depth Not available.
UV 0 out of 12
Pollen 8.30 out of 12
Air Quality Not available.
Flu Activity Not available.
METAR KIWI 020853Z AUTO 00000KT 10SM OVC004 13/13 A2999 RMK AO2 SLP154 T01330128 56008

10-Day Weather Forecast

×

Almanac

Astronomy

Sep. 02, 2015 Rise Set
Actual Time
Civil Twilight
Nautical Twilight
Astronomical Twilight
Moon
Length of Visible Light
Length of Day
Tomorrow will be .
, % of the Moon is Illuminated

Today's Extremes

State Highs State Lows

Community

WunderPhotos

Upload Photos

1,851,729 photos uploaded!

WunderBlogs® & News

Nearby

Air Quality

  Air Quality AQ Index Pollutant
Not available.

Snow Depth

Station Depth Elevation

Earthquake Activity

City Distance Mag. Time & Date
Minimum magnitude displayed is 2.5.

Coastal Water Temperatures

Place Temperature

Stations

Nearby Weather Stations

Station Location Temp. Windchill Dew Point Humidity Wind Precip. Elev Updated Type